sensor_id;sensor_type;location;lat;lon;timestamp;P1;durP1;ratioP1;P2;durP2;ratioP2
30729;SDS011;17476;48.458;7.928;2024-02-26T00:02:04;0.20;;;0.20;;
30729;SDS011;17476;48.458;7.928;2024-02-26T00:04:30;0.17;;;0.17;;
30729;SDS011;17476;48.458;7.928;2024-02-26T00:06:56;0.30;;;0.30;;
30729;SDS011;17476;48.458;7.928;2024-02-26T00:09:23;0.20;;;0.20;;
30729;SDS011;17476;48.458;7.928;2024-02-26T00:11:48;0.20;;;0.20;;
30729;SDS011;17476;48.458;7.928;2024-02-26T00:14:14;0.20;;;0.20;;
30729;SDS011;17476;48.458;7.928;2024-02-26T00:16:40;0.20;;;0.20;;
30729;SDS011;17476;48.458;7.928;2024-02-26T00:19:07;0.20;;;0.20;;
30729;SDS011;17476;48.458;7.928;2024-02-26T00:21:32;0.20;;;0.20;;
30729;SDS011;17476;48.458;7.928;2024-02-26T00:23:58;0.10;;;0.10;;
30729;SDS011;17476;48.458;7.928;2024-02-26T00:26:24;0.20;;;0.20;;
30729;SDS011;17476;48.458;7.928;2024-02-26T00:28:53;0.27;;;0.27;;
30729;SDS011;17476;48.458;7.928;2024-02-26T00:31:18;0.17;;;0.17;;
30729;SDS011;17476;48.458;7.928;2024-02-26T00:33:44;0.20;;;0.20;;
30729;SDS011;17476;48.458;7.928;2024-02-26T00:36:10;0.20;;;0.20;;
30729;SDS011;17476;48.458;7.928;2024-02-26T00:38:35;0.20;;;0.20;;
30729;SDS011;17476;48.458;7.928;2024-02-26T00:41:01;0.30;;;0.30;;
30729;SDS011;17476;48.458;7.928;2024-02-26T00:43:27;0.20;;;0.20;;
30729;SDS011;17476;48.458;7.928;2024-02-26T00:45:54;0.30;;;0.30;;
30729;SDS011;17476;48.458;7.928;2024-02-26T00:48:20;0.30;;;0.30;;
30729;SDS011;17476;48.458;7.928;2024-02-26T00:50:46;0.30;;;0.30;;
30729;SDS011;17476;48.458;7.928;2024-02-26T00:53:11;0.30;;;0.30;;
30729;SDS011;17476;48.458;7.928;2024-02-26T00:55:37;0.30;;;0.30;;
30729;SDS011;17476;48.458;7.928;2024-02-26T00:58:03;0.30;;;0.30;;
30729;SDS011;17476;48.458;7.928;2024-02-26T01:00:29;0.30;;;0.30;;
30729;SDS011;17476;48.458;7.928;2024-02-26T01:02:54;0.30;;;0.30;;
30729;SDS011;17476;48.458;7.928;2024-02-26T01:05:21;0.30;;;0.30;;
30729;SDS011;17476;48.458;7.928;2024-02-26T01:07:47;0.30;;;0.30;;
30729;SDS011;17476;48.458;7.928;2024-02-26T01:10:13;0.30;;;0.30;;
30729;SDS011;17476;48.458;7.928;2024-02-26T01:12:38;0.10;;;0.10;;
30729;SDS011;17476;48.458;7.928;2024-02-26T01:15:04;0.27;;;0.27;;
30729;SDS011;17476;48.458;7.928;2024-02-26T01:17:31;0.20;;;0.20;;
30729;SDS011;17476;48.458;7.928;2024-02-26T01:19:56;0.30;;;0.30;;
30729;SDS011;17476;48.458;7.928;2024-02-26T01:22:22;0.30;;;0.30;;
30729;SDS011;17476;48.458;7.928;2024-02-26T01:24:48;0.27;;;0.27;;
30729;SDS011;17476;48.458;7.928;2024-02-26T01:27:14;0.20;;;0.20;;
30729;SDS011;17476;48.458;7.928;2024-02-26T01:29:40;0.20;;;0.20;;
30729;SDS011;17476;48.458;7.928;2024-02-26T01:32:07;0.30;;;0.30;;
30729;SDS011;17476;48.458;7.928;2024-02-26T01:34:33;0.30;;;0.30;;
30729;SDS011;17476;48.458;7.928;2024-02-26T01:36:59;0.20;;;0.20;;
30729;SDS011;17476;48.458;7.928;2024-02-26T01:39:25;0.30;;;0.30;;
30729;SDS011;17476;48.458;7.928;2024-02-26T01:41:54;0.30;;;0.30;;
30729;SDS011;17476;48.458;7.928;2024-02-26T01:44:19;0.20;;;0.20;;
30729;SDS011;17476;48.458;7.928;2024-02-26T01:46:46;0.30;;;0.30;;
30729;SDS011;17476;48.458;7.928;2024-02-26T01:49:12;0.30;;;0.30;;
30729;SDS011;17476;48.458;7.928;2024-02-26T01:51:40;0.20;;;0.20;;
30729;SDS011;17476;48.458;7.928;2024-02-26T01:54:08;0.30;;;0.30;;
30729;SDS011;17476;48.458;7.928;2024-02-26T01:56:35;0.30;;;0.30;;
30729;SDS011;17476;48.458;7.928;2024-02-26T01:59:02;0.10;;;0.10;;
30729;SDS011;17476;48.458;7.928;2024-02-26T02:01:30;0.23;;;0.23;;
30729;SDS011;17476;48.458;7.928;2024-02-26T02:03:59;0.30;;;0.30;;
30729;SDS011;17476;48.458;7.928;2024-02-26T02:06:25;0.30;;;0.30;;
30729;SDS011;17476;48.458;7.928;2024-02-26T02:08:54;0.30;;;0.30;;
30729;SDS011;17476;48.458;7.928;2024-02-26T02:11:20;0.30;;;0.30;;
30729;SDS011;17476;48.458;7.928;2024-02-26T02:13:46;0.30;;;0.30;;
30729;SDS011;17476;48.458;7.928;2024-02-26T02:16:12;0.20;;;0.20;;
30729;SDS011;17476;48.458;7.928;2024-02-26T02:18:38;0.20;;;0.20;;
30729;SDS011;17476;48.458;7.928;2024-02-26T02:21:04;0.23;;;0.23;;
30729;SDS011;17476;48.458;7.928;2024-02-26T02:23:30;0.20;;;0.20;;
30729;SDS011;17476;48.458;7.928;2024-02-26T02:25:56;0.30;;;0.30;;
30729;SDS011;17476;48.458;7.928;2024-02-26T02:28:23;0.33;;;0.33;;
30729;SDS011;17476;48.458;7.928;2024-02-26T02:30:52;0.30;;;0.30;;
30729;SDS011;17476;48.458;7.928;2024-02-26T02:33:18;0.20;;;0.20;;
30729;SDS011;17476;48.458;7.928;2024-02-26T02:35:48;0.30;;;0.30;;
30729;SDS011;17476;48.458;7.928;2024-02-26T02:38:15;0.30;;;0.30;;
30729;SDS011;17476;48.458;7.928;2024-02-26T02:40:41;0.30;;;0.30;;
30729;SDS011;17476;48.458;7.928;2024-02-26T02:43:07;0.30;;;0.30;;
30729;SDS011;17476;48.458;7.928;2024-02-26T02:45:33;0.30;;;0.30;;
30729;SDS011;17476;48.458;7.928;2024-02-26T02:47:59;0.30;;;0.30;;
30729;SDS011;17476;48.458;7.928;2024-02-26T02:50:24;0.30;;;0.30;;
30729;SDS011;17476;48.458;7.928;2024-02-26T02:52:50;0.20;;;0.20;;
30729;SDS011;17476;48.458;7.928;2024-02-26T02:55:16;0.30;;;0.30;;
30729;SDS011;17476;48.458;7.928;2024-02-26T02:57:43;0.23;;;0.23;;
30729;SDS011;17476;48.458;7.928;2024-02-26T03:00:10;0.30;;;0.30;;
30729;SDS011;17476;48.458;7.928;2024-02-26T03:02:36;0.30;;;0.30;;
30729;SDS011;17476;48.458;7.928;2024-02-26T03:05:03;0.30;;;0.30;;
30729;SDS011;17476;48.458;7.928;2024-02-26T03:07:29;0.20;;;0.20;;
30729;SDS011;17476;48.458;7.928;2024-02-26T03:09:55;0.30;;;0.30;;
30729;SDS011;17476;48.458;7.928;2024-02-26T03:12:21;0.30;;;0.30;;
30729;SDS011;17476;48.458;7.928;2024-02-26T03:14:47;0.20;;;0.20;;
30729;SDS011;17476;48.458;7.928;2024-02-26T03:17:13;0.20;;;0.20;;
30729;SDS011;17476;48.458;7.928;2024-02-26T03:19:38;0.30;;;0.30;;
30729;SDS011;17476;48.458;7.928;2024-02-26T03:22:04;0.30;;;0.30;;
30729;SDS011;17476;48.458;7.928;2024-02-26T03:24:30;0.20;;;0.20;;
30729;SDS011;17476;48.458;7.928;2024-02-26T03:26:56;0.27;;;0.27;;
30729;SDS011;17476;48.458;7.928;2024-02-26T03:29:22;0.30;;;0.30;;
30729;SDS011;17476;48.458;7.928;2024-02-26T03:31:48;0.30;;;0.30;;
30729;SDS011;17476;48.458;7.928;2024-02-26T03:34:13;0.30;;;0.30;;
30729;SDS011;17476;48.458;7.928;2024-02-26T03:36:40;0.20;;;0.20;;
30729;SDS011;17476;48.458;7.928;2024-02-26T03:39:07;0.30;;;0.30;;
30729;SDS011;17476;48.458;7.928;2024-02-26T03:41:33;0.20;;;0.20;;
30729;SDS011;17476;48.458;7.928;2024-02-26T03:44:00;0.20;;;0.20;;
30729;SDS011;17476;48.458;7.928;2024-02-26T03:46:26;0.30;;;0.30;;
30729;SDS011;17476;48.458;7.928;2024-02-26T03:48:52;0.20;;;0.20;;
30729;SDS011;17476;48.458;7.928;2024-02-26T03:51:18;0.20;;;0.20;;
30729;SDS011;17476;48.458;7.928;2024-02-26T03:53:44;0.20;;;0.20;;
30729;SDS011;17476;48.458;7.928;2024-02-26T03:56:11;0.30;;;0.30;;
30729;SDS011;17476;48.458;7.928;2024-02-26T03:58:38;0.30;;;0.30;;
30729;SDS011;17476;48.458;7.928;2024-02-26T04:01:04;0.30;;;0.30;;
30729;SDS011;17476;48.458;7.928;2024-02-26T04:03:33;0.30;;;0.30;;
30729;SDS011;17476;48.458;7.928;2024-02-26T04:05:59;0.30;;;0.30;;
30729;SDS011;17476;48.458;7.928;2024-02-26T04:08:25;0.30;;;0.30;;
30729;SDS011;17476;48.458;7.928;2024-02-26T04:10:51;0.30;;;0.30;;
30729;SDS011;17476;48.458;7.928;2024-02-26T04:13:17;0.20;;;0.20;;
30729;SDS011;17476;48.458;7.928;2024-02-26T04:15:43;0.20;;;0.20;;
30729;SDS011;17476;48.458;7.928;2024-02-26T04:18:09;0.30;;;0.30;;
30729;SDS011;17476;48.458;7.928;2024-02-26T04:20:35;0.30;;;0.30;;
30729;SDS011;17476;48.458;7.928;2024-02-26T04:23:01;0.30;;;0.30;;
30729;SDS011;17476;48.458;7.928;2024-02-26T04:25:28;0.40;;;0.40;;
30729;SDS011;17476;48.458;7.928;2024-02-26T04:27:53;0.20;;;0.20;;
30729;SDS011;17476;48.458;7.928;2024-02-26T04:30:19;0.30;;;0.30;;
30729;SDS011;17476;48.458;7.928;2024-02-26T04:32:45;0.30;;;0.30;;
30729;SDS011;17476;48.458;7.928;2024-02-26T04:35:11;0.30;;;0.30;;
30729;SDS011;17476;48.458;7.928;2024-02-26T04:37:36;0.20;;;0.20;;
30729;SDS011;17476;48.458;7.928;2024-02-26T04:40:03;0.30;;;0.30;;
30729;SDS011;17476;48.458;7.928;2024-02-26T04:42:29;0.30;;;0.30;;
30729;SDS011;17476;48.458;7.928;2024-02-26T04:44:55;0.30;;;0.30;;
30729;SDS011;17476;48.458;7.928;2024-02-26T04:47:21;0.30;;;0.30;;
30729;SDS011;17476;48.458;7.928;2024-02-26T04:49:47;0.30;;;0.30;;
30729;SDS011;17476;48.458;7.928;2024-02-26T04:52:17;0.30;;;0.30;;
30729;SDS011;17476;48.458;7.928;2024-02-26T04:54:43;0.30;;;0.30;;
30729;SDS011;17476;48.458;7.928;2024-02-26T04:57:09;0.20;;;0.20;;
30729;SDS011;17476;48.458;7.928;2024-02-26T04:59:35;0.30;;;0.30;;
30729;SDS011;17476;48.458;7.928;2024-02-26T05:02:01;0.30;;;0.30;;
30729;SDS011;17476;48.458;7.928;2024-02-26T05:04:28;0.30;;;0.30;;
30729;SDS011;17476;48.458;7.928;2024-02-26T05:06:54;0.20;;;0.20;;
30729;SDS011;17476;48.458;7.928;2024-02-26T05:09:19;0.30;;;0.30;;
30729;SDS011;17476;48.458;7.928;2024-02-26T05:11:45;0.20;;;0.20;;
30729;SDS011;17476;48.458;7.928;2024-02-26T05:14:11;0.30;;;0.30;;
30729;SDS011;17476;48.458;7.928;2024-02-26T05:16:37;0.30;;;0.30;;
30729;SDS011;17476;48.458;7.928;2024-02-26T05:19:02;0.20;;;0.20;;
30729;SDS011;17476;48.458;7.928;2024-02-26T05:21:28;0.20;;;0.20;;
30729;SDS011;17476;48.458;7.928;2024-02-26T05:23:54;0.30;;;0.30;;
30729;SDS011;17476;48.458;7.928;2024-02-26T05:26:20;0.30;;;0.30;;
30729;SDS011;17476;48.458;7.928;2024-02-26T05:28:47;0.30;;;0.30;;
30729;SDS011;17476;48.458;7.928;2024-02-26T05:31:13;0.30;;;0.30;;
30729;SDS011;17476;48.458;7.928;2024-02-26T05:33:39;0.30;;;0.30;;
30729;SDS011;17476;48.458;7.928;2024-02-26T05:36:05;0.40;;;0.40;;
30729;SDS011;17476;48.458;7.928;2024-02-26T05:38:31;0.30;;;0.30;;
30729;SDS011;17476;48.458;7.928;2024-02-26T05:41:00;0.30;;;0.30;;
30729;SDS011;17476;48.458;7.928;2024-02-26T05:43:26;0.27;;;0.27;;
30729;SDS011;17476;48.458;7.928;2024-02-26T05:45:53;0.30;;;0.30;;
30729;SDS011;17476;48.458;7.928;2024-02-26T05:48:19;0.30;;;0.30;;
30729;SDS011;17476;48.458;7.928;2024-02-26T05:50:45;0.20;;;0.20;;
30729;SDS011;17476;48.458;7.928;2024-02-26T05:53:11;0.20;;;0.20;;
30729;SDS011;17476;48.458;7.928;2024-02-26T05:55:37;0.30;;;0.30;;
30729;SDS011;17476;48.458;7.928;2024-02-26T05:58:03;0.30;;;0.30;;
30729;SDS011;17476;48.458;7.928;2024-02-26T06:00:30;0.20;;;0.20;;
30729;SDS011;17476;48.458;7.928;2024-02-26T06:03:01;0.30;;;0.30;;
30729;SDS011;17476;48.458;7.928;2024-02-26T06:05:27;0.30;;;0.30;;
30729;SDS011;17476;48.458;7.928;2024-02-26T06:07:53;0.23;;;0.23;;
30729;SDS011;17476;48.458;7.928;2024-02-26T06:10:19;0.30;;;0.30;;
30729;SDS011;17476;48.458;7.928;2024-02-26T06:12:46;0.33;;;0.33;;
30729;SDS011;17476;48.458;7.928;2024-02-26T06:15:13;0.37;;;0.37;;
30729;SDS011;17476;48.458;7.928;2024-02-26T06:17:38;0.30;;;0.30;;
30729;SDS011;17476;48.458;7.928;2024-02-26T06:20:04;0.30;;;0.30;;
30729;SDS011;17476;48.458;7.928;2024-02-26T06:22:31;0.30;;;0.30;;
30729;SDS011;17476;48.458;7.928;2024-02-26T06:24:57;0.30;;;0.30;;
30729;SDS011;17476;48.458;7.928;2024-02-26T06:27:23;0.30;;;0.30;;
30729;SDS011;17476;48.458;7.928;2024-02-26T06:29:49;0.40;;;0.40;;
30729;SDS011;17476;48.458;7.928;2024-02-26T06:32:15;0.30;;;0.30;;
30729;SDS011;17476;48.458;7.928;2024-02-26T06:34:40;0.30;;;0.30;;
30729;SDS011;17476;48.458;7.928;2024-02-26T06:37:07;0.30;;;0.30;;
30729;SDS011;17476;48.458;7.928;2024-02-26T06:39:33;0.30;;;0.30;;
30729;SDS011;17476;48.458;7.928;2024-02-26T06:41:59;0.30;;;0.30;;
30729;SDS011;17476;48.458;7.928;2024-02-26T06:44:26;0.40;;;0.40;;
30729;SDS011;17476;48.458;7.928;2024-02-26T06:46:59;0.30;;;0.30;;
30729;SDS011;17476;48.458;7.928;2024-02-26T06:49:25;0.37;;;0.37;;
30729;SDS011;17476;48.458;7.928;2024-02-26T06:51:51;0.30;;;0.30;;
30729;SDS011;17476;48.458;7.928;2024-02-26T06:54:17;0.30;;;0.30;;
30729;SDS011;17476;48.458;7.928;2024-02-26T06:56:43;0.30;;;0.30;;
30729;SDS011;17476;48.458;7.928;2024-02-26T06:59:09;0.30;;;0.30;;
30729;SDS011;17476;48.458;7.928;2024-02-26T07:01:35;0.37;;;0.37;;
30729;SDS011;17476;48.458;7.928;2024-02-26T07:04:01;0.30;;;0.30;;
30729;SDS011;17476;48.458;7.928;2024-02-26T07:06:27;0.40;;;0.40;;
30729;SDS011;17476;48.458;7.928;2024-02-26T07:08:52;0.40;;;0.40;;
30729;SDS011;17476;48.458;7.928;2024-02-26T07:11:19;0.30;;;0.30;;
30729;SDS011;17476;48.458;7.928;2024-02-26T07:13:45;0.20;;;0.20;;
30729;SDS011;17476;48.458;7.928;2024-02-26T07:16:11;0.30;;;0.30;;
30729;SDS011;17476;48.458;7.928;2024-02-26T07:18:38;0.23;;;0.23;;
30729;SDS011;17476;48.458;7.928;2024-02-26T07:21:04;0.30;;;0.30;;
30729;SDS011;17476;48.458;7.928;2024-02-26T07:23:30;0.37;;;0.37;;
30729;SDS011;17476;48.458;7.928;2024-02-26T07:25:57;0.37;;;0.37;;
30729;SDS011;17476;48.458;7.928;2024-02-26T07:28:23;0.30;;;0.30;;
30729;SDS011;17476;48.458;7.928;2024-02-26T07:30:49;0.30;;;0.30;;
30729;SDS011;17476;48.458;7.928;2024-02-26T07:33:15;0.20;;;0.20;;
30729;SDS011;17476;48.458;7.928;2024-02-26T07:35:41;0.20;;;0.20;;
30729;SDS011;17476;48.458;7.928;2024-02-26T07:38:07;0.30;;;0.30;;
30729;SDS011;17476;48.458;7.928;2024-02-26T07:40:32;0.30;;;0.30;;
30729;SDS011;17476;48.458;7.928;2024-02-26T07:42:58;0.30;;;0.30;;
30729;SDS011;17476;48.458;7.928;2024-02-26T07:45:24;0.30;;;0.30;;
30729;SDS011;17476;48.458;7.928;2024-02-26T07:47:50;0.33;;;0.33;;
30729;SDS011;17476;48.458;7.928;2024-02-26T07:50:16;0.30;;;0.30;;
30729;SDS011;17476;48.458;7.928;2024-02-26T07:52:43;0.30;;;0.30;;
30729;SDS011;17476;48.458;7.928;2024-02-26T07:55:09;0.30;;;0.30;;
30729;SDS011;17476;48.458;7.928;2024-02-26T07:57:35;0.30;;;0.30;;
30729;SDS011;17476;48.458;7.928;2024-02-26T08:00:02;0.40;;;0.40;;
30729;SDS011;17476;48.458;7.928;2024-02-26T08:02:28;0.30;;;0.30;;
30729;SDS011;17476;48.458;7.928;2024-02-26T08:04:54;0.30;;;0.30;;
30729;SDS011;17476;48.458;7.928;2024-02-26T08:07:23;0.30;;;0.30;;
30729;SDS011;17476;48.458;7.928;2024-02-26T08:09:48;0.30;;;0.30;;
30729;SDS011;17476;48.458;7.928;2024-02-26T08:12:14;0.20;;;0.20;;
30729;SDS011;17476;48.458;7.928;2024-02-26T08:14:40;0.20;;;0.20;;
30729;SDS011;17476;48.458;7.928;2024-02-26T08:17:06;0.30;;;0.30;;
30729;SDS011;17476;48.458;7.928;2024-02-26T08:19:33;0.30;;;0.30;;
30729;SDS011;17476;48.458;7.928;2024-02-26T08:22:00;0.20;;;0.20;;
30729;SDS011;17476;48.458;7.928;2024-02-26T08:24:27;0.20;;;0.20;;
30729;SDS011;17476;48.458;7.928;2024-02-26T08:26:53;0.30;;;0.30;;
30729;SDS011;17476;48.458;7.928;2024-02-26T08:29:19;0.30;;;0.30;;
30729;SDS011;17476;48.458;7.928;2024-02-26T08:31:44;0.30;;;0.30;;
30729;SDS011;17476;48.458;7.928;2024-02-26T08:34:10;0.30;;;0.30;;
30729;SDS011;17476;48.458;7.928;2024-02-26T08:36:36;0.20;;;0.20;;
30729;SDS011;17476;48.458;7.928;2024-02-26T08:39:02;0.30;;;0.30;;
30729;SDS011;17476;48.458;7.928;2024-02-26T08:41:28;0.30;;;0.30;;
30729;SDS011;17476;48.458;7.928;2024-02-26T08:43:54;0.20;;;0.20;;
30729;SDS011;17476;48.458;7.928;2024-02-26T08:46:19;0.30;;;0.30;;
30729;SDS011;17476;48.458;7.928;2024-02-26T08:48:46;0.30;;;0.30;;
30729;SDS011;17476;48.458;7.928;2024-02-26T08:51:11;0.20;;;0.20;;
30729;SDS011;17476;48.458;7.928;2024-02-26T08:53:38;0.30;;;0.30;;
30729;SDS011;17476;48.458;7.928;2024-02-26T08:56:04;0.20;;;0.20;;
30729;SDS011;17476;48.458;7.928;2024-02-26T08:58:30;0.20;;;0.20;;
30729;SDS011;17476;48.458;7.928;2024-02-26T09:00:56;0.20;;;0.20;;
30729;SDS011;17476;48.458;7.928;2024-02-26T09:03:22;0.20;;;0.20;;
30729;SDS011;17476;48.458;7.928;2024-02-26T09:05:49;0.30;;;0.30;;
30729;SDS011;17476;48.458;7.928;2024-02-26T09:08:14;0.20;;;0.20;;
30729;SDS011;17476;48.458;7.928;2024-02-26T09:10:41;0.20;;;0.20;;
30729;SDS011;17476;48.458;7.928;2024-02-26T09:13:07;0.20;;;0.20;;
30729;SDS011;17476;48.458;7.928;2024-02-26T09:15:33;0.30;;;0.30;;
30729;SDS011;17476;48.458;7.928;2024-02-26T09:17:59;0.20;;;0.20;;
30729;SDS011;17476;48.458;7.928;2024-02-26T09:20:24;0.20;;;0.20;;
30729;SDS011;17476;48.458;7.928;2024-02-26T09:22:50;0.10;;;0.10;;
30729;SDS011;17476;48.458;7.928;2024-02-26T09:25:16;0.20;;;0.20;;
30729;SDS011;17476;48.458;7.928;2024-02-26T09:27:43;0.17;;;0.17;;
30729;SDS011;17476;48.458;7.928;2024-02-26T09:30:09;0.30;;;0.30;;
30729;SDS011;17476;48.458;7.928;2024-02-26T09:32:37;0.17;;;0.17;;
30729;SDS011;17476;48.458;7.928;2024-02-26T09:35:04;0.10;;;0.10;;
30729;SDS011;17476;48.458;7.928;2024-02-26T09:37:31;0.30;;;0.30;;
30729;SDS011;17476;48.458;7.928;2024-02-26T09:39:58;0.10;;;0.10;;
30729;SDS011;17476;48.458;7.928;2024-02-26T09:42:25;0.20;;;0.20;;
30729;SDS011;17476;48.458;7.928;2024-02-26T09:44:51;0.20;;;0.20;;
30729;SDS011;17476;48.458;7.928;2024-02-26T09:47:25;0.20;;;0.20;;
30729;SDS011;17476;48.458;7.928;2024-02-26T09:49:56;0.17;;;0.17;;
30729;SDS011;17476;48.458;7.928;2024-02-26T09:52:26;0.10;;;0.10;;
30729;SDS011;17476;48.458;7.928;2024-02-26T09:54:56;0.20;;;0.20;;
30729;SDS011;17476;48.458;7.928;2024-02-26T09:57:22;0.10;;;0.10;;
30729;SDS011;17476;48.458;7.928;2024-02-26T09:59:50;0.13;;;0.13;;
30729;SDS011;17476;48.458;7.928;2024-02-26T10:02:18;0.20;;;0.20;;
30729;SDS011;17476;48.458;7.928;2024-02-26T10:04:46;0.20;;;0.20;;
30729;SDS011;17476;48.458;7.928;2024-02-26T10:07:16;0.20;;;0.20;;
30729;SDS011;17476;48.458;7.928;2024-02-26T10:09:41;0.13;;;0.13;;
30729;SDS011;17476;48.458;7.928;2024-02-26T10:12:10;0.10;;;0.10;;
30729;SDS011;17476;48.458;7.928;2024-02-26T10:14:37;0.10;;;0.10;;
30729;SDS011;17476;48.458;7.928;2024-02-26T10:17:02;0.10;;;0.10;;
30729;SDS011;17476;48.458;7.928;2024-02-26T10:19:33;0.10;;;0.10;;
30729;SDS011;17476;48.458;7.928;2024-02-26T10:21:59;0.10;;;0.10;;
30729;SDS011;17476;48.458;7.928;2024-02-26T10:24:27;0.10;;;0.10;;
30729;SDS011;17476;48.458;7.928;2024-02-26T10:26:54;0.20;;;0.20;;
30729;SDS011;17476;48.458;7.928;2024-02-26T10:29:21;0.10;;;0.10;;
30729;SDS011;17476;48.458;7.928;2024-02-26T10:31:51;0.17;;;0.17;;
30729;SDS011;17476;48.458;7.928;2024-02-26T10:34:18;0.10;;;0.10;;
30729;SDS011;17476;48.458;7.928;2024-02-26T10:36:44;0.10;;;0.10;;
30729;SDS011;17476;48.458;7.928;2024-02-26T10:39:13;0.10;;;0.10;;
30729;SDS011;17476;48.458;7.928;2024-02-26T10:41:40;0.03;;;0.03;;
30729;SDS011;17476;48.458;7.928;2024-02-26T10:44:11;0.10;;;0.10;;
30729;SDS011;17476;48.458;7.928;2024-02-26T10:46:38;0.10;;;0.10;;
30729;SDS011;17476;48.458;7.928;2024-02-26T10:49:07;0.10;;;0.10;;
30729;SDS011;17476;48.458;7.928;2024-02-26T10:51:40;0.10;;;0.10;;
30729;SDS011;17476;48.458;7.928;2024-02-26T10:54:10;0.10;;;0.10;;
30729;SDS011;17476;48.458;7.928;2024-02-26T10:56:41;0.10;;;0.10;;
30729;SDS011;17476;48.458;7.928;2024-02-26T10:59:09;0.07;;;0.07;;
30729;SDS011;17476;48.458;7.928;2024-02-26T11:01:35;0.10;;;0.10;;
30729;SDS011;17476;48.458;7.928;2024-02-26T11:04:06;0.10;;;0.10;;
30729;SDS011;17476;48.458;7.928;2024-02-26T11:06:33;0.00;;;0.00;;
30729;SDS011;17476;48.458;7.928;2024-02-26T11:09:01;0.10;;;0.10;;
30729;SDS011;17476;48.458;7.928;2024-02-26T11:11:28;0.10;;;0.10;;
30729;SDS011;17476;48.458;7.928;2024-02-26T11:13:56;0.00;;;0.00;;
30729;SDS011;17476;48.458;7.928;2024-02-26T11:16:23;0.03;;;0.03;;
30729;SDS011;17476;48.458;7.928;2024-02-26T11:18:52;0.10;;;0.10;;
30729;SDS011;17476;48.458;7.928;2024-02-26T11:21:20;0.10;;;0.10;;
30729;SDS011;17476;48.458;7.928;2024-02-26T11:24:03;0.10;;;0.10;;
30729;SDS011;17476;48.458;7.928;2024-02-26T11:26:48;0.10;;;0.10;;
30729;SDS011;17476;48.458;7.928;2024-02-26T11:29:24;0.10;;;0.10;;
30729;SDS011;17476;48.458;7.928;2024-02-26T11:32:02;0.03;;;0.03;;
30729;SDS011;17476;48.458;7.928;2024-02-26T11:34:28;0.10;;;0.10;;
30729;SDS011;17476;48.458;7.928;2024-02-26T11:36:54;0.10;;;0.10;;
30729;SDS011;17476;48.458;7.928;2024-02-26T11:39:21;0.10;;;0.10;;
30729;SDS011;17476;48.458;7.928;2024-02-26T11:41:49;0.10;;;0.10;;
30729;SDS011;17476;48.458;7.928;2024-02-26T11:44:15;0.03;;;0.03;;
30729;SDS011;17476;48.458;7.928;2024-02-26T11:46:55;0.03;;;0.03;;
30729;SDS011;17476;48.458;7.928;2024-02-26T11:51:54;0.10;;;0.10;;
30729;SDS011;17476;48.458;7.928;2024-02-26T12:02:48;0.00;;;0.00;;
30729;SDS011;17476;48.458;7.928;2024-02-26T12:05:23;0.07;;;0.07;;
30729;SDS011;17476;48.458;7.928;2024-02-26T12:07:53;0.10;;;0.10;;
30729;SDS011;17476;48.458;7.928;2024-02-26T12:10:31;0.10;;;0.10;;
30729;SDS011;17476;48.458;7.928;2024-02-26T12:15:38;0.00;;;0.00;;
30729;SDS011;17476;48.458;7.928;2024-02-26T12:18:10;0.10;;;0.10;;
30729;SDS011;17476;48.458;7.928;2024-02-26T12:20:42;0.10;;;0.10;;
30729;SDS011;17476;48.458;7.928;2024-02-26T12:23:15;0.10;;;0.10;;
30729;SDS011;17476;48.458;7.928;2024-02-26T12:25:44;0.10;;;0.10;;
30729;SDS011;17476;48.458;7.928;2024-02-26T12:28:13;0.00;;;0.00;;
30729;SDS011;17476;48.458;7.928;2024-02-26T12:30:39;0.03;;;0.03;;
30729;SDS011;17476;48.458;7.928;2024-02-26T12:33:05;0.10;;;0.10;;
30729;SDS011;17476;48.458;7.928;2024-02-26T12:35:33;0.10;;;0.10;;
30729;SDS011;17476;48.458;7.928;2024-02-26T12:38:00;0.10;;;0.10;;
30729;SDS011;17476;48.458;7.928;2024-02-26T12:40:27;0.10;;;0.10;;
30729;SDS011;17476;48.458;7.928;2024-02-26T12:42:53;0.00;;;0.00;;
30729;SDS011;17476;48.458;7.928;2024-02-26T12:45:21;0.00;;;0.00;;
30729;SDS011;17476;48.458;7.928;2024-02-26T12:47:48;0.07;;;0.07;;
30729;SDS011;17476;48.458;7.928;2024-02-26T12:50:14;0.00;;;0.00;;
30729;SDS011;17476;48.458;7.928;2024-02-26T12:52:44;0.10;;;0.10;;
30729;SDS011;17476;48.458;7.928;2024-02-26T12:55:15;0.10;;;0.10;;
30729;SDS011;17476;48.458;7.928;2024-02-26T12:57:44;0.03;;;0.03;;
30729;SDS011;17476;48.458;7.928;2024-02-26T13:00:12;0.00;;;0.00;;
30729;SDS011;17476;48.458;7.928;2024-02-26T13:02:41;0.10;;;0.10;;
30729;SDS011;17476;48.458;7.928;2024-02-26T13:05:11;0.10;;;0.10;;
30729;SDS011;17476;48.458;7.928;2024-02-26T13:07:42;0.10;;;0.10;;
30729;SDS011;17476;48.458;7.928;2024-02-26T13:10:08;0.10;;;0.10;;
30729;SDS011;17476;48.458;7.928;2024-02-26T13:12:37;0.00;;;0.00;;
30729;SDS011;17476;48.458;7.928;2024-02-26T13:15:09;0.10;;;0.10;;
30729;SDS011;17476;48.458;7.928;2024-02-26T13:17:41;0.10;;;0.10;;
30729;SDS011;17476;48.458;7.928;2024-02-26T13:20:08;0.10;;;0.10;;
30729;SDS011;17476;48.458;7.928;2024-02-26T13:22:35;0.10;;;0.10;;
30729;SDS011;17476;48.458;7.928;2024-02-26T13:25:01;0.10;;;0.10;;
30729;SDS011;17476;48.458;7.928;2024-02-26T13:27:32;0.03;;;0.03;;
30729;SDS011;17476;48.458;7.928;2024-02-26T13:30:02;0.00;;;0.00;;
30729;SDS011;17476;48.458;7.928;2024-02-26T13:32:36;0.10;;;0.10;;
30729;SDS011;17476;48.458;7.928;2024-02-26T13:35:07;0.10;;;0.10;;
30729;SDS011;17476;48.458;7.928;2024-02-26T13:37:35;0.10;;;0.10;;
30729;SDS011;17476;48.458;7.928;2024-02-26T13:40:08;0.10;;;0.10;;
30729;SDS011;17476;48.458;7.928;2024-02-26T13:42:35;0.10;;;0.10;;
30729;SDS011;17476;48.458;7.928;2024-02-26T13:45:02;0.07;;;0.07;;
30729;SDS011;17476;48.458;7.928;2024-02-26T13:47:31;0.00;;;0.00;;
30729;SDS011;17476;48.458;7.928;2024-02-26T13:49:58;0.10;;;0.10;;
30729;SDS011;17476;48.458;7.928;2024-02-26T13:52:25;0.10;;;0.10;;
30729;SDS011;17476;48.458;7.928;2024-02-26T13:54:51;0.10;;;0.10;;
30729;SDS011;17476;48.458;7.928;2024-02-26T13:57:18;0.00;;;0.00;;
30729;SDS011;17476;48.458;7.928;2024-02-26T13:59:45;0.07;;;0.07;;
30729;SDS011;17476;48.458;7.928;2024-02-26T14:02:11;0.10;;;0.10;;
30729;SDS011;17476;48.458;7.928;2024-02-26T14:04:37;0.10;;;0.10;;
30729;SDS011;17476;48.458;7.928;2024-02-26T14:07:03;0.10;;;0.10;;
30729;SDS011;17476;48.458;7.928;2024-02-26T14:09:30;0.10;;;0.10;;
30729;SDS011;17476;48.458;7.928;2024-02-26T14:11:57;0.10;;;0.10;;
30729;SDS011;17476;48.458;7.928;2024-02-26T14:14:24;0.00;;;0.00;;
30729;SDS011;17476;48.458;7.928;2024-02-26T14:16:50;0.10;;;0.10;;
30729;SDS011;17476;48.458;7.928;2024-02-26T14:19:16;0.00;;;0.00;;
30729;SDS011;17476;48.458;7.928;2024-02-26T14:21:42;0.10;;;0.10;;
30729;SDS011;17476;48.458;7.928;2024-02-26T14:24:08;0.10;;;0.10;;
30729;SDS011;17476;48.458;7.928;2024-02-26T14:26:34;0.00;;;0.00;;
30729;SDS011;17476;48.458;7.928;2024-02-26T14:29:00;0.10;;;0.10;;
30729;SDS011;17476;48.458;7.928;2024-02-26T14:31:25;0.10;;;0.10;;
30729;SDS011;17476;48.458;7.928;2024-02-26T14:33:51;0.10;;;0.10;;
30729;SDS011;17476;48.458;7.928;2024-02-26T14:36:18;0.10;;;0.10;;
30729;SDS011;17476;48.458;7.928;2024-02-26T14:38:47;0.10;;;0.10;;
30729;SDS011;17476;48.458;7.928;2024-02-26T14:41:13;0.10;;;0.10;;
30729;SDS011;17476;48.458;7.928;2024-02-26T14:43:39;0.00;;;0.00;;
30729;SDS011;17476;48.458;7.928;2024-02-26T14:46:05;0.10;;;0.10;;
30729;SDS011;17476;48.458;7.928;2024-02-26T14:48:31;0.20;;;0.20;;
30729;SDS011;17476;48.458;7.928;2024-02-26T14:50:57;0.20;;;0.20;;
30729;SDS011;17476;48.458;7.928;2024-02-26T14:53:24;0.17;;;0.17;;
30729;SDS011;17476;48.458;7.928;2024-02-26T14:55:49;0.00;;;0.00;;
30729;SDS011;17476;48.458;7.928;2024-02-26T14:58:15;0.10;;;0.10;;
30729;SDS011;17476;48.458;7.928;2024-02-26T15:00:44;0.10;;;0.10;;